createdAt,value
2022-08-19T00:01:30.371Z,6.18
2022-08-19T00:04:07.454Z,5.93
2022-08-19T00:06:36.331Z,7.07
2022-08-19T00:09:06.019Z,7.30
2022-08-19T00:11:32.865Z,7.90
2022-08-19T00:14:00.015Z,8.75
2022-08-19T00:16:27.124Z,7.15
2022-08-19T00:18:56.664Z,7.68
2022-08-19T00:21:25.681Z,8.25
2022-08-19T00:23:52.527Z,6.90
2022-08-19T00:26:19.318Z,7.13
2022-08-19T00:28:46.021Z,7.65
2022-08-19T00:31:12.722Z,7.55
2022-08-19T00:33:39.664Z,6.28
2022-08-19T00:36:08.589Z,9.73
2022-08-19T00:38:38.051Z,8.25
2022-08-19T00:41:06.498Z,6.90
2022-08-19T00:43:33.880Z,6.93
2022-08-19T00:46:00.596Z,8.73
2022-08-19T00:48:27.606Z,8.32
2022-08-19T00:50:55.299Z,9.90
2022-08-19T00:53:25.455Z,8.30
2022-08-19T00:55:55.816Z,6.75
2022-08-19T00:58:28.767Z,6.90
2022-08-19T01:00:55.701Z,8.57
2022-08-19T01:03:23.975Z,10.45
2022-08-19T01:05:52.771Z,6.90
2022-08-19T01:08:21.100Z,6.15
2022-08-19T01:10:56.057Z,7.75
2022-08-19T01:13:26.164Z,8.80
2022-08-19T01:15:57.694Z,7.95
2022-08-19T01:18:26.537Z,7.32
2022-08-19T01:20:57.257Z,7.10
2022-08-19T01:23:43.374Z,7.70
2022-08-19T01:26:21.380Z,6.97
2022-08-19T01:28:51.867Z,10.10
2022-08-19T01:31:26.725Z,9.07
2022-08-19T01:33:57.158Z,8.23
2022-08-19T01:36:28.493Z,6.95
2022-08-19T01:38:56.270Z,6.35
2022-08-19T01:41:24.447Z,5.38
2022-08-19T01:44:09.825Z,6.07
2022-08-19T01:46:40.506Z,6.80
2022-08-19T01:49:08.987Z,6.38
2022-08-19T01:51:39.747Z,6.97
2022-08-19T01:54:08.848Z,4.63
2022-08-19T01:56:35.998Z,6.90
2022-08-19T01:59:09.835Z,7.25
2022-08-19T02:01:37.582Z,5.90
2022-08-19T02:04:04.187Z,5.30
2022-08-19T02:06:30.845Z,5.47
2022-08-19T02:08:57.826Z,4.32
2022-08-19T02:11:43.020Z,4.72
2022-08-19T02:14:10.031Z,4.20
2022-08-19T02:16:37.609Z,5.07
2022-08-19T02:19:04.502Z,4.30
2022-08-19T02:21:31.736Z,3.60
2022-08-19T02:23:58.934Z,5.75
2022-08-19T02:26:27.537Z,4.65
2022-08-19T02:28:55.947Z,4.53
2022-08-19T02:31:25.853Z,3.50
2022-08-19T02:33:56.686Z,4.57
2022-08-19T02:36:25.275Z,3.78
2022-08-19T02:38:54.300Z,3.53
2022-08-19T02:41:29.769Z,3.55
2022-08-19T02:44:22.942Z,5.00
2022-08-19T02:46:51.751Z,5.50
2022-08-19T02:49:19.981Z,5.93
2022-08-19T02:51:47.322Z,4.75
2022-08-19T02:54:15.716Z,4.72
2022-08-19T02:56:44.235Z,4.28
2022-08-19T02:59:13.292Z,3.88
2022-08-19T03:01:42.501Z,4.35
2022-08-19T03:04:12.846Z,7.35
2022-08-19T03:06:41.733Z,5.95
2022-08-19T03:09:09.278Z,8.35
2022-08-19T03:11:36.060Z,4.20
2022-08-19T03:14:07.234Z,5.10
2022-08-19T03:19:03.698Z,6.95
2022-08-19T03:21:33.141Z,5.90
2022-08-19T03:24:02.712Z,4.22
2022-08-19T03:26:30.804Z,5.22
2022-08-19T03:29:01.963Z,7.22
2022-08-19T03:31:44.892Z,4.60
2022-08-19T03:34:23.725Z,7.70
2022-08-19T03:36:50.417Z,6.95
2022-08-19T03:39:17.432Z,8.55
2022-08-19T03:41:48.514Z,5.22
2022-08-19T03:47:06.289Z,3.85
2022-08-19T03:49:35.988Z,8.07
2022-08-19T03:52:08.184Z,4.40
2022-08-19T03:54:36.035Z,4.72
2022-08-19T03:57:04.344Z,6.25
2022-08-19T03:59:34.098Z,4.00
2022-08-19T04:02:04.089Z,5.35
2022-08-19T04:04:31.844Z,5.90
2022-08-19T04:06:59.165Z,6.05
2022-08-19T04:09:27.093Z,8.45
2022-08-19T04:11:57.043Z,5.15
2022-08-19T04:14:29.494Z,4.60
2022-08-19T04:16:56.267Z,6.20
2022-08-19T04:19:23.969Z,6.43
2022-08-19T04:21:54.426Z,5.95
2022-08-19T04:24:22.858Z,6.97
2022-08-19T04:26:50.508Z,9.20
2022-08-19T04:29:25.645Z,10.23
2022-08-19T04:31:54.844Z,8.93
2022-08-19T04:34:25.167Z,5.85
2022-08-19T04:36:54.296Z,8.77
2022-08-19T04:39:44.984Z,8.00
2022-08-19T04:42:31.513Z,8.63
2022-08-19T04:44:59.654Z,7.22
2022-08-19T04:47:48.315Z,7.15
2022-08-19T04:50:14.597Z,7.75
2022-08-19T04:52:44.627Z,7.88
2022-08-19T04:55:12.665Z,8.05
2022-08-19T04:57:41.500Z,7.85
2022-08-19T05:00:09.991Z,8.68
2022-08-19T05:02:38.245Z,8.63
2022-08-19T05:05:05.655Z,7.72
2022-08-19T05:07:32.603Z,8.70
2022-08-19T05:09:59.641Z,8.32
2022-08-19T05:12:28.808Z,12.10
2022-08-19T05:14:58.243Z,7.90
2022-08-19T05:17:28.504Z,10.05
2022-08-19T05:20:16.188Z,9.13
2022-08-19T05:22:45.409Z,10.32
2022-08-19T05:25:15.451Z,8.77
2022-08-19T05:27:43.341Z,12.38
2022-08-19T05:30:11.646Z,8.70
2022-08-19T05:32:40.105Z,9.68
2022-08-19T05:35:08.242Z,11.82
2022-08-19T05:37:35.147Z,10.63
2022-08-19T05:40:02.460Z,8.27
2022-08-19T05:42:29.625Z,10.20
2022-08-19T05:44:57.768Z,11.55
2022-08-19T05:47:24.845Z,10.05
2022-08-19T05:49:52.255Z,10.68
2022-08-19T05:52:25.935Z,9.65
2022-08-19T05:54:56.768Z,10.43
2022-08-19T05:57:24.940Z,9.00
2022-08-19T05:59:58.100Z,10.90
2022-08-19T06:02:31.624Z,6.85
2022-08-19T06:04:58.944Z,9.20
2022-08-19T06:07:26.197Z,9.75
2022-08-19T06:09:59.705Z,10.88
2022-08-19T06:12:34.256Z,9.95
2022-08-19T06:15:03.907Z,9.45
2022-08-19T06:17:32.395Z,9.13
2022-08-19T06:20:00.114Z,10.27
2022-08-19T06:22:28.528Z,13.98
2022-08-19T06:24:56.586Z,12.40
2022-08-19T06:27:23.940Z,9.80
2022-08-19T06:29:50.685Z,9.65
2022-08-19T06:32:19.971Z,9.85
2022-08-19T06:34:47.784Z,11.80
2022-08-19T06:37:15.462Z,13.20
2022-08-19T06:39:45.003Z,11.45
2022-08-19T06:42:14.416Z,15.73
2022-08-19T06:44:48.794Z,10.80
2022-08-19T06:47:23.070Z,10.73
2022-08-19T06:49:54.233Z,10.20
2022-08-19T06:52:21.205Z,11.60
2022-08-19T06:54:56.141Z,15.90
2022-08-19T06:57:25.615Z,17.58
2022-08-19T06:59:52.790Z,16.85
2022-08-19T07:02:20.688Z,16.77
2022-08-19T07:04:47.762Z,20.92
2022-08-19T07:07:21.823Z,15.50
2022-08-19T07:09:58.530Z,17.90
2022-08-19T07:12:30.365Z,16.73
2022-08-19T07:14:59.364Z,14.93
2022-08-19T07:17:27.204Z,21.13
2022-08-19T07:19:54.915Z,15.25
2022-08-19T07:22:24.399Z,16.58
2022-08-19T07:24:53.929Z,14.88
2022-08-19T07:27:24.512Z,18.52
2022-08-19T07:29:55.875Z,18.80
2022-08-19T07:32:27.374Z,18.23
2022-08-19T07:34:54.805Z,19.75
2022-08-19T07:37:21.499Z,19.15
2022-08-19T07:39:49.173Z,25.20
2022-08-19T07:42:16.221Z,25.65
2022-08-19T07:44:50.558Z,25.30
2022-08-19T07:47:49.559Z,20.58
2022-08-19T07:50:12.752Z,21.90
2022-08-19T07:52:40.841Z,31.08
2022-08-19T07:55:11.449Z,21.75
2022-08-19T07:57:58.795Z,21.08
2022-08-19T08:00:26.146Z,19.83
2022-08-19T08:02:55.850Z,24.95
2022-08-19T08:05:44.145Z,23.38
2022-08-19T08:08:31.278Z,17.85
2022-08-19T08:10:59.834Z,21.88
2022-08-19T08:13:30.096Z,17.63
2022-08-19T08:15:58.228Z,22.63
2022-08-19T08:18:27.842Z,23.30
2022-08-19T08:20:56.764Z,25.05
2022-08-19T08:23:26.744Z,22.17
2022-08-19T08:25:56.533Z,25.25
2022-08-19T08:28:26.252Z,23.85
2022-08-19T08:30:57.967Z,25.65
2022-08-19T08:33:33.968Z,22.13
2022-08-19T08:36:09.148Z,23.35
2022-08-19T08:38:39.695Z,21.42
2022-08-19T08:41:35.182Z,26.77
2022-08-19T08:44:05.394Z,25.08
2022-08-19T08:46:39.324Z,27.80
2022-08-19T08:49:25.610Z,24.58
2022-08-19T08:52:01.657Z,20.08
2022-08-19T08:54:49.068Z,23.70
2022-08-19T08:57:54.638Z,25.00
2022-08-19T09:00:27.686Z,23.73
2022-08-19T09:02:59.342Z,24.27
2022-08-19T09:05:48.592Z,23.08
2022-08-19T09:08:39.595Z,24.13
2022-08-19T09:11:16.519Z,21.40
2022-08-19T09:14:50.183Z,24.98
2022-08-19T09:17:18.922Z,23.52
2022-08-19T09:20:05.805Z,21.38
2022-08-19T09:22:40.438Z,18.13
2022-08-19T09:25:09.808Z,17.73
2022-08-19T09:27:42.868Z,16.77
2022-08-19T09:30:22.285Z,17.65
2022-08-19T09:32:52.823Z,19.00
2022-08-19T09:35:24.908Z,17.58
2022-08-19T09:37:57.791Z,13.70
2022-08-19T09:40:35.444Z,14.85
2022-08-19T09:43:09.969Z,15.90
2022-08-19T09:45:38.558Z,16.05
2022-08-19T09:48:06.131Z,15.73
2022-08-19T09:50:39.535Z,13.85
2022-08-19T09:53:19.192Z,15.20
2022-08-19T09:55:46.338Z,17.27
2022-08-19T09:58:14.782Z,15.15
2022-08-19T10:00:41.737Z,16.60
2022-08-19T10:03:09.497Z,15.43
2022-08-19T10:05:55.228Z,17.35
2022-08-19T10:08:32.694Z,17.30
2022-08-19T10:11:28.566Z,21.13
2022-08-19T10:13:48.617Z,25.75
2022-08-19T10:16:20.971Z,21.35
2022-08-19T10:18:49.732Z,18.45
2022-08-19T10:21:23.824Z,20.23
2022-08-19T10:23:56.005Z,22.00
2022-08-19T10:26:26.638Z,20.45
2022-08-19T10:28:53.897Z,18.58
2022-08-19T10:32:01.296Z,25.27
2022-08-19T10:34:27.056Z,26.17
2022-08-19T10:37:00.407Z,25.77
2022-08-19T10:39:31.000Z,21.98
2022-08-19T10:41:58.974Z,22.35
2022-08-19T10:44:32.680Z,23.52
2022-08-19T10:47:00.456Z,25.25
2022-08-19T10:49:28.150Z,20.60
2022-08-19T10:52:18.734Z,21.90
2022-08-19T10:55:08.335Z,21.05
2022-08-19T11:00:24.400Z,13.98
2022-08-19T11:02:52.167Z,13.60
2022-08-19T11:05:20.389Z,15.65
2022-08-19T11:07:53.653Z,13.00
2022-08-19T11:10:22.124Z,15.20
2022-08-19T11:12:49.663Z,11.65
2022-08-19T11:15:16.834Z,16.35
2022-08-19T11:17:44.912Z,13.75
2022-08-19T11:20:16.154Z,12.55
2022-08-19T11:22:43.365Z,11.20
2022-08-19T11:25:12.115Z,11.18
2022-08-19T11:27:43.576Z,6.30
2022-08-19T11:30:13.378Z,6.95
2022-08-19T11:32:45.888Z,7.70
2022-08-19T11:35:15.572Z,6.80
2022-08-19T11:37:43.636Z,5.53
2022-08-19T11:40:11.302Z,4.88
2022-08-19T11:42:56.575Z,4.10
2022-08-19T11:45:29.377Z,4.20
2022-08-19T11:47:56.738Z,4.00
2022-08-19T11:50:25.528Z,3.13
2022-08-19T11:52:56.008Z,2.97
2022-08-19T11:55:23.665Z,3.53
2022-08-19T11:57:50.437Z,3.80
2022-08-19T12:00:19.334Z,3.15
2022-08-19T12:02:46.067Z,2.67
2022-08-19T12:05:13.327Z,2.05
2022-08-19T12:07:45.001Z,2.00
2022-08-19T12:10:11.831Z,1.42
2022-08-19T12:12:43.807Z,2.08
2022-08-19T12:15:15.484Z,1.08
2022-08-19T12:17:43.529Z,1.00
2022-08-19T12:20:12.360Z,0.88
2022-08-19T12:22:39.184Z,1.52
2022-08-19T12:25:06.979Z,1.23
2022-08-19T12:27:40.170Z,1.80
2022-08-19T12:30:11.516Z,1.20
2022-08-19T12:32:39.176Z,1.50
2022-08-19T12:35:08.084Z,1.02
2022-08-19T12:37:35.189Z,0.90
2022-08-19T12:40:05.168Z,1.50
2022-08-19T12:42:31.962Z,2.17
2022-08-19T12:44:58.605Z,1.73
2022-08-19T12:47:27.479Z,3.47
2022-08-19T12:49:55.679Z,1.27
2022-08-19T12:52:24.836Z,1.52
2022-08-19T12:54:54.710Z,2.08
2022-08-19T12:57:32.592Z,1.87
2022-08-19T13:00:05.270Z,1.90
2022-08-19T13:02:38.594Z,4.43
2022-08-19T13:05:09.122Z,1.98
2022-08-19T13:07:36.401Z,2.35
2022-08-19T13:10:04.067Z,1.40
2022-08-19T13:12:30.755Z,1.30
2022-08-19T13:14:57.447Z,2.17
2022-08-19T13:17:25.336Z,1.63
2022-08-19T13:19:52.007Z,1.40
2022-08-19T13:22:18.981Z,1.23
2022-08-19T13:24:47.369Z,1.58
2022-08-19T13:27:16.122Z,1.52
2022-08-19T13:30:01.582Z,3.63
2022-08-19T13:32:49.155Z,2.42
2022-08-19T13:35:17.116Z,1.10
2022-08-19T13:37:44.959Z,2.40
2022-08-19T13:40:19.907Z,0.55
2022-08-19T13:42:49.107Z,1.95
2022-08-19T13:45:19.091Z,0.80
2022-08-19T13:47:53.600Z,0.50
2022-08-19T13:50:26.547Z,0.60
2022-08-19T13:55:24.819Z,1.40
2022-08-19T13:57:57.793Z,0.63
2022-08-19T14:00:29.723Z,1.85
2022-08-19T14:02:58.007Z,0.50
2022-08-19T14:05:26.568Z,0.80
2022-08-19T14:07:54.532Z,0.57
2022-08-19T14:10:22.310Z,1.27
2022-08-19T14:12:53.580Z,0.80
2022-08-19T14:15:20.389Z,0.98
2022-08-19T14:17:50.098Z,1.50
2022-08-19T14:20:18.514Z,1.70
2022-08-19T14:22:47.826Z,1.02
2022-08-19T14:25:21.784Z,1.10
2022-08-19T14:27:49.321Z,1.50
2022-08-19T14:30:19.763Z,1.13
2022-08-19T14:32:49.835Z,1.65
2022-08-19T14:35:17.611Z,1.20
2022-08-19T14:37:46.663Z,1.55
2022-08-19T14:40:16.805Z,1.25
2022-08-19T14:42:44.619Z,1.17
2022-08-19T14:45:15.457Z,1.42
2022-08-19T14:50:17.836Z,1.52
2022-08-19T14:52:48.677Z,1.23
2022-08-19T14:55:17.012Z,1.20
2022-08-19T14:57:44.442Z,0.82
2022-08-19T15:00:14.035Z,1.15
2022-08-19T15:02:42.093Z,1.08
2022-08-19T15:05:09.470Z,1.20
2022-08-19T15:07:36.830Z,1.27
2022-08-19T15:10:04.698Z,1.60
2022-08-19T15:12:31.415Z,2.17
2022-08-19T15:14:58.084Z,1.23
2022-08-19T15:17:32.412Z,1.88
2022-08-19T15:20:16.704Z,2.30
2022-08-19T15:22:43.394Z,2.28
2022-08-19T15:25:12.918Z,2.45
2022-08-19T15:27:42.333Z,2.05
2022-08-19T15:30:10.528Z,2.42
2022-08-19T15:32:37.992Z,1.20
2022-08-19T15:35:07.307Z,1.73
2022-08-19T15:37:37.300Z,1.42
2022-08-19T15:40:06.656Z,1.67
2022-08-19T15:42:34.334Z,0.95
2022-08-19T15:45:02.425Z,0.30
2022-08-19T15:47:35.207Z,0.68
2022-08-19T15:50:15.503Z,0.40
2022-08-19T15:52:50.464Z,0.52
2022-08-19T15:55:33.544Z,0.30
2022-08-19T15:58:28.307Z,0.70
2022-08-19T16:01:20.869Z,0.68
2022-08-19T16:04:14.857Z,0.57
2022-08-19T16:06:44.857Z,0.60
2022-08-19T16:09:13.359Z,0.75
2022-08-19T16:11:45.562Z,0.95
2022-08-19T16:14:17.385Z,1.00
2022-08-19T16:16:47.345Z,0.30
2022-08-19T16:19:17.550Z,0.90
2022-08-19T16:21:49.140Z,0.83
2022-08-19T16:24:18.186Z,1.30
2022-08-19T16:26:46.363Z,2.97
2022-08-19T16:29:14.350Z,1.33
2022-08-19T16:31:44.099Z,0.98
2022-08-19T16:34:12.404Z,1.60
2022-08-19T16:36:42.274Z,0.68
2022-08-19T16:39:15.455Z,0.65
2022-08-19T16:41:44.942Z,2.05
2022-08-19T16:44:14.775Z,0.45
2022-08-19T16:46:42.413Z,0.82
2022-08-19T16:49:11.436Z,1.15
2022-08-19T16:51:39.556Z,1.27
2022-08-19T16:54:06.439Z,1.08
2022-08-19T16:56:33.866Z,2.15
2022-08-19T16:59:01.291Z,0.93
2022-08-19T17:01:29.644Z,1.13
2022-08-19T17:03:57.235Z,1.05
2022-08-19T17:06:27.236Z,1.65
2022-08-19T17:08:59.033Z,3.75
2022-08-19T17:11:28.166Z,1.73
2022-08-19T17:13:59.305Z,1.73
2022-08-19T17:18:57.893Z,1.83
2022-08-19T17:21:32.069Z,2.65
2022-08-19T17:24:00.760Z,1.52
2022-08-19T17:26:33.926Z,1.42
2022-08-19T17:29:01.028Z,1.55
2022-08-19T17:31:29.965Z,4.28
2022-08-19T17:33:59.222Z,2.25
2022-08-19T17:36:29.261Z,1.88
2022-08-19T17:38:58.555Z,2.60
2022-08-19T17:41:26.923Z,0.88
2022-08-19T17:43:53.977Z,1.20
2022-08-19T17:46:21.394Z,0.88
2022-08-19T17:48:52.761Z,1.58
2022-08-19T17:51:42.165Z,2.90
2022-08-19T17:54:16.781Z,3.90
2022-08-19T17:56:45.570Z,3.30
2022-08-19T17:59:14.107Z,3.72
2022-08-19T18:01:53.497Z,4.70
2022-08-19T18:04:23.614Z,3.28
2022-08-19T18:06:53.746Z,4.00
2022-08-19T18:09:41.787Z,5.03
2022-08-19T18:12:11.275Z,4.68
2022-08-19T18:14:39.603Z,6.18
2022-08-19T18:17:12.457Z,4.32
2022-08-19T18:19:42.987Z,6.45
2022-08-19T18:22:12.855Z,8.38
2022-08-19T18:24:42.377Z,7.03
2022-08-19T18:27:10.190Z,6.85
2022-08-19T18:29:38.771Z,6.65
2022-08-19T18:32:12.685Z,8.13
2022-08-19T18:34:41.816Z,7.40
2022-08-19T18:37:08.828Z,6.47
2022-08-19T18:39:54.494Z,6.00
2022-08-19T18:42:40.200Z,12.55
2022-08-19T18:45:26.537Z,6.57
2022-08-19T18:48:27.288Z,9.10
2022-08-19T18:53:28.378Z,7.97
2022-08-19T18:55:55.836Z,5.82
2022-08-19T18:58:38.044Z,8.02
2022-08-19T19:01:13.073Z,6.93
2022-08-19T19:03:49.518Z,7.00
2022-08-19T19:06:25.723Z,5.97
2022-08-19T19:08:54.376Z,9.60
2022-08-19T19:11:30.415Z,6.47
2022-08-19T19:13:59.645Z,7.80
2022-08-19T19:16:26.619Z,6.28
2022-08-19T19:18:53.660Z,7.13
2022-08-19T19:21:23.426Z,7.60
2022-08-19T19:23:51.202Z,7.32
2022-08-19T19:26:18.553Z,8.98
2022-08-19T19:28:45.768Z,5.55
2022-08-19T19:31:26.614Z,5.70
2022-08-19T19:33:56.405Z,7.60
2022-08-19T19:36:24.197Z,5.63
2022-08-19T19:38:54.069Z,7.35
2022-08-19T19:41:26.558Z,6.72
2022-08-19T19:44:16.469Z,7.50
2022-08-19T19:46:43.095Z,5.55
2022-08-19T19:49:10.513Z,6.20
2022-08-19T19:51:41.177Z,8.00
2022-08-19T19:54:13.691Z,6.88
2022-08-19T19:56:43.443Z,6.18
2022-08-19T19:59:10.082Z,7.20
2022-08-19T20:01:37.060Z,10.60
2022-08-19T20:04:04.677Z,8.57
2022-08-19T20:06:31.396Z,5.80
2022-08-19T20:09:16.363Z,5.57
2022-08-19T20:11:53.922Z,5.03
2022-08-19T20:14:25.245Z,7.03
2022-08-19T20:19:22.668Z,7.45
2022-08-19T20:21:51.487Z,7.85
2022-08-19T20:24:32.599Z,6.65
2022-08-19T20:27:03.817Z,7.03
2022-08-19T20:29:38.136Z,7.35
2022-08-19T20:32:05.589Z,11.20
2022-08-19T20:34:34.125Z,10.30
2022-08-19T20:37:00.944Z,6.25
2022-08-19T20:39:27.918Z,7.65
2022-08-19T20:41:56.687Z,7.15
2022-08-19T20:44:25.929Z,5.47
2022-08-19T20:46:56.765Z,6.47
2022-08-19T20:49:27.250Z,7.85
2022-08-19T20:51:55.215Z,6.20
2022-08-19T20:54:22.526Z,9.82
2022-08-19T20:56:49.195Z,9.30
2022-08-19T20:59:16.016Z,8.18
2022-08-19T21:01:43.054Z,8.98
2022-08-19T21:04:10.022Z,8.93
2022-08-19T21:06:38.480Z,8.45
2022-08-19T21:09:05.586Z,9.50
2022-08-19T21:11:32.382Z,9.00
2022-08-19T21:13:59.747Z,8.23
2022-08-19T21:16:26.756Z,9.15
2022-08-19T21:18:53.357Z,10.43
2022-08-19T21:21:20.622Z,13.75
2022-08-19T21:23:47.301Z,10.80
2022-08-19T21:26:14.008Z,9.57
2022-08-19T21:28:41.063Z,9.90
2022-08-19T21:31:10.695Z,11.18
2022-08-19T21:33:37.986Z,9.60
2022-08-19T21:36:05.917Z,13.20
2022-08-19T21:38:34.314Z,10.30
2022-08-19T21:41:06.004Z,9.48
2022-08-19T21:43:34.892Z,8.75
2022-08-19T21:46:04.327Z,9.57
2022-08-19T21:48:31.102Z,11.60
2022-08-19T21:50:58.051Z,12.45
2022-08-19T21:53:24.770Z,11.05
2022-08-19T21:55:58.377Z,12.20
2022-08-19T21:58:28.374Z,12.02
2022-08-19T22:00:59.085Z,9.35
2022-08-19T22:03:26.904Z,10.93
2022-08-19T22:05:54.392Z,8.60
2022-08-19T22:08:21.478Z,8.70
2022-08-19T22:10:49.777Z,6.95
2022-08-19T22:13:18.406Z,7.13
2022-08-19T22:15:52.131Z,10.75
2022-08-19T22:18:18.947Z,11.77
2022-08-19T22:20:45.757Z,6.75
2022-08-19T22:23:12.511Z,5.88
2022-08-19T22:25:42.986Z,5.60
2022-08-19T22:28:12.148Z,5.45
2022-08-19T22:30:41.685Z,6.00
2022-08-19T22:33:13.031Z,4.78
2022-08-19T22:35:41.609Z,5.22
2022-08-19T22:38:13.066Z,6.53
2022-08-19T22:40:43.038Z,3.60
2022-08-19T22:43:24.853Z,4.60
2022-08-19T22:45:53.764Z,5.00
2022-08-19T22:48:25.304Z,5.35
2022-08-19T22:51:11.659Z,5.25
2022-08-19T22:53:41.569Z,4.88
2022-08-19T22:56:14.966Z,5.45
2022-08-19T22:58:42.695Z,5.78
2022-08-19T23:01:11.759Z,5.28
2022-08-19T23:03:51.748Z,4.85
2022-08-19T23:06:18.987Z,6.30
2022-08-19T23:08:45.946Z,5.75
2022-08-19T23:11:12.721Z,6.63
2022-08-19T23:13:41.498Z,5.95
2022-08-19T23:16:08.683Z,6.38
2022-08-19T23:18:35.915Z,5.50
2022-08-19T23:21:09.453Z,7.95
2022-08-19T23:23:37.867Z,7.38
2022-08-19T23:26:06.466Z,7.93
2022-08-19T23:28:57.364Z,6.82
2022-08-19T23:31:26.375Z,5.95
2022-08-19T23:33:53.763Z,7.78
2022-08-19T23:36:22.047Z,5.97
2022-08-19T23:38:51.958Z,8.63
2022-08-19T23:41:21.554Z,6.75
2022-08-19T23:43:48.284Z,7.82
2022-08-19T23:46:27.992Z,7.95
2022-08-19T23:48:55.969Z,6.75
2022-08-19T23:51:23.150Z,7.93
2022-08-19T23:53:50.145Z,7.43
2022-08-19T23:56:16.800Z,9.18
2022-08-19T23:58:43.565Z,9.20
